Time;durP1;ratioP1;P1;durP2;ratioP2;P2;SDS_P1;SDS_P2;PMS_P1;PMS_P2;Temp;Humidity;BMP_temperature;BMP_pressure;BME280_temperature;BME280_humidity;BME280_pressure;Samples;Min_cycle;Max_cycle;Signal;HPM_P1;HPM_P2
2022/11/01 00:01:56;;;;;;;8.82;4.55;;;;;;;16.96;71.49;100587.03;3578203;40;20091;-59
2022/11/01 00:04:22;;;;;;;12.15;4.70;;;;;;;17.14;70.77;100593.47;3576897;40;20057;-61
2022/11/01 00:06:49;;;;;;;11.43;4.38;;;;;;;17.12;70.55;100579.16;3578567;40;20056;-61
2022/11/01 00:09:16;;;;;;;9.00;4.45;;;;;;;17.28;70.85;100595.75;3580730;40;20044;-60
2022/11/01 00:11:41;;;;;;;10.68;4.97;;;;;;;17.31;70.32;100587.28;3579346;40;20080;-58
2022/11/01 00:14:12;;;;;;;7.55;4.45;;;;;;;17.36;69.96;100587.75;3579698;40;20072;-61
2022/11/01 00:16:38;;;;;;;10.93;5.68;;;;;;;17.42;70.41;100596.31;3578283;40;20056;-60
2022/11/01 00:19:04;;;;;;;10.98;4.55;;;;;;;17.48;69.65;100590.31;3580161;40;20059;-60
2022/11/01 00:21:30;;;;;;;9.10;4.35;;;;;;;17.51;69.98;100590.03;3578736;40;20072;-59
2022/11/01 00:23:55;;;;;;;16.35;5.22;;;;;;;17.56;69.25;100579.56;3579094;40;20703;-58
2022/11/01 00:26:23;;;;;;;8.38;4.20;;;;;;;17.63;69.79;100578.84;3579053;40;20065;-58
2022/11/01 00:28:49;;;;;;;8.65;4.10;;;;;;;17.66;68.96;100577.66;3579940;40;20068;-60
2022/11/01 00:31:19;;;;;;;8.85;4.18;;;;;;;17.70;68.90;100572.81;3578081;40;20094;-61
2022/11/01 00:33:45;;;;;;;6.88;3.70;;;;;;;17.44;69.27;100524.50;3581170;40;20052;-60
2022/11/01 00:36:11;;;;;;;8.48;4.00;;;;;;;17.81;69.27;100580.81;3579063;40;20076;-61
2022/11/01 00:38:37;;;;;;;9.45;3.95;;;;;;;17.81;69.35;100580.81;3578344;40;20055;-60
2022/11/01 00:41:04;;;;;;;7.60;3.90;;;;;;;17.82;68.88;100582.50;3580133;40;20059;-58
2022/11/01 00:43:32;;;;;;;9.30;4.20;;;;;;;17.83;69.55;100587.81;3581396;40;20049;-58
2022/11/01 00:45:58;;;;;;;11.45;3.63;;;;;;;17.81;69.36;100581.66;3580969;40;20060;-58
2022/11/01 00:48:25;;;;;;;7.72;3.80;;;;;;;17.86;68.84;100582.09;3579674;40;20064;-58
2022/11/01 00:50:52;;;;;;;7.28;3.70;;;;;;;17.88;69.34;100575.63;3578706;40;20110;-58
2022/11/01 00:53:19;;;;;;;7.68;3.97;;;;;;;17.90;69.77;100573.63;3580074;40;20051;-58
2022/11/01 00:55:44;;;;;;;6.28;3.50;;;;;;;17.48;69.31;100508.78;3576361;40;20072;-57
2022/11/01 00:58:10;;;;;;;7.70;3.85;;;;;;;17.45;70.01;100500.91;3578300;40;20059;-58
2022/11/01 01:00:36;;;;;;;8.30;4.15;;;;;;;17.84;69.35;100575.06;3578121;40;20345;-58
2022/11/01 01:03:04;;;;;;;10.70;3.95;;;;;;;17.82;69.68;100561.66;3577993;40;20048;-58
2022/11/01 01:05:32;;;;;;;11.57;4.03;;;;;;;17.82;70.06;100574.34;3579438;40;20049;-59
2022/11/01 01:07:58;;;;;;;7.60;3.88;;;;;;;17.85;69.28;100566.75;3577413;40;20085;-59
2022/11/01 01:10:24;;;;;;;6.22;4.20;;;;;;;17.89;69.55;100561.03;3577326;40;20059;-59
2022/11/01 01:12:50;;;;;;;8.60;3.83;;;;;;;17.91;69.80;100545.44;3575505;40;20060;-59
2022/11/01 01:15:15;;;;;;;5.88;3.53;;;;;;;17.93;69.79;100543.44;3579220;40;20068;-58
2022/11/01 01:17:41;;;;;;;8.55;3.95;;;;;;;17.94;70.08;100558.72;3579736;40;20211;-59
2022/11/01 01:20:08;;;;;;;8.80;4.38;;;;;;;17.99;70.43;100548.28;3567626;40;20064;-59
2022/11/01 01:22:34;;;;;;;10.02;4.20;;;;;;;17.95;70.46;100561.31;3576211;40;20064;-58
2022/11/01 01:24:59;;;;;;;9.82;4.35;;;;;;;17.95;70.33;100557.72;3576464;40;20064;-58
2022/11/01 01:27:25;;;;;;;7.30;3.58;;;;;;;17.93;70.69;100565.19;3578932;40;20403;-58
2022/11/01 01:29:51;;;;;;;8.13;4.07;;;;;;;17.96;70.73;100557.56;3579366;40;20060;-57
2022/11/01 01:32:21;;;;;;;8.25;4.22;;;;;;;17.96;70.41;100562.16;3578912;40;20068;-59
2022/11/01 01:34:47;;;;;;;8.80;4.28;;;;;;;17.98;71.06;100571.00;3578240;40;20491;-58
2022/11/01 01:37:14;;;;;;;7.70;3.95;;;;;;;17.96;71.00;100556.72;3576302;40;20056;-59
2022/11/01 01:39:41;;;;;;;7.88;3.80;;;;;;;17.98;70.44;100568.28;3577076;40;20082;-58
2022/11/01 01:42:28;;;;;;;10.77;3.90;;;;;;;17.97;71.28;100558.44;3578603;40;20057;-59
2022/11/01 01:44:54;;;;;;;12.40;4.28;;;;;;;17.95;71.62;100557.72;3579882;40;20052;-59
2022/11/01 01:47:33;;;;;;;8.52;4.03;;;;;;;17.96;71.19;100551.28;3578087;40;20107;-59
2022/11/01 01:50:20;;;;;;;7.10;3.72;;;;;;;17.99;70.91;100553.72;3580248;40;20141;-58
2022/11/01 01:52:49;;;;;;;5.07;3.67;;;;;;;18.03;70.60;100552.41;3576328;40;20063;-59
2022/11/01 01:55:23;;;;;;;7.20;3.72;;;;;;;17.98;71.01;100544.69;3575828;40;20040;-59
2022/11/01 01:57:53;;;;;;;7.45;3.97;;;;;;;18.05;71.45;100555.84;3580034;40;20057;-58
2022/11/01 02:00:19;;;;;;;8.30;3.85;;;;;;;18.07;71.01;100549.22;3576576;40;20106;-58
2022/11/01 02:02:45;;;;;;;13.65;4.43;;;;;;;18.03;71.13;100552.41;3579030;40;20346;-59
2022/11/01 02:05:36;;;;;;;7.95;3.70;;;;;;;18.12;71.07;100556.94;3577853;40;20071;-59
2022/11/01 02:08:03;;;;;;;9.38;4.30;;;;;;;18.13;70.71;100547.75;3578244;40;20060;-58
2022/11/01 02:10:31;;;;;;;7.00;3.70;;;;;;;18.15;70.37;100555.78;3577704;40;20072;-59
2022/11/01 02:12:57;;;;;;;9.70;3.95;;;;;;;18.17;70.43;100554.59;3579619;40;20102;-58
2022/11/01 02:15:39;;;;;;;9.48;3.80;;;;;;;18.15;70.24;100567.53;3579387;40;20071;-59
2022/11/01 02:18:07;;;;;;;11.13;3.72;;;;;;;18.16;70.08;100555.63;3578343;40;20418;-59
2022/11/01 02:21:30;;;;;;;6.45;3.50;;;;;;;18.16;70.59;100563.78;3577090;40;20046;-59
2022/11/01 02:24:42;;;;;;;9.65;3.72;;;;;;;18.15;70.71;100561.22;3558723;40;20053;-60
2022/11/01 02:27:23;;;;;;;10.90;3.90;;;;;;;18.10;71.15;100576.13;3556919;40;20068;-59
2022/11/01 02:30:15;;;;;;;10.80;3.92;;;;;;;18.06;70.60;100554.81;3575345;40;20052;-59
2022/11/01 02:33:28;;;;;;;6.93;3.90;;;;;;;18.06;71.28;100573.84;3578100;40;20318;-59
2022/11/01 02:36:39;;;;;;;10.70;3.67;;;;;;;18.02;70.54;100567.00;3578192;40;20056;-59
2022/11/01 02:39:17;;;;;;;7.85;3.58;;;;;;;18.04;71.04;100562.25;3576953;40;20306;-59
2022/11/01 02:41:58;;;;;;;8.35;3.92;;;;;;;18.05;70.72;100561.28;3578848;40;20114;-59
2022/11/01 02:44:43;;;;;;;7.70;3.25;;;;;;;17.98;70.83;100571.00;3578208;40;20476;-59
2022/11/01 02:47:11;;;;;;;9.65;3.92;;;;;;;18.02;70.72;100573.31;3578739;40;20044;-59
2022/11/01 02:49:43;;;;;;;8.35;3.80;;;;;;;17.97;70.79;100570.16;3579171;40;20067;-59
2022/11/01 02:52:22;;;;;;;7.07;3.80;;;;;;;17.97;70.65;100580.19;3579668;40;20064;-59
2022/11/01 02:54:57;;;;;;;6.03;3.58;;;;;;;17.92;71.08;100583.38;3577684;40;20392;-59
2022/11/01 02:57:39;;;;;;;10.88;3.92;;;;;;;17.91;71.95;100580.78;3577421;40;20059;-59
2022/11/01 03:00:44;;;;;;;7.70;4.03;;;;;;;17.89;71.87;100580.06;3579696;40;20080;-59
2022/11/01 03:03:29;;;;;;;8.05;3.97;;;;;;;17.88;72.21;100591.94;3554514;40;20325;-59
2022/11/01 03:06:03;;;;;;;8.13;3.45;;;;;;;17.84;72.14;100594.13;3557181;40;20131;-58
2022/11/01 03:08:35;;;;;;;7.35;3.80;;;;;;;17.84;71.56;100600.41;3570645;40;20276;-58
2022/11/01 03:11:28;;;;;;;7.93;3.97;;;;;;;17.82;71.48;100599.72;3578847;40;20066;-59
2022/11/01 03:14:18;;;;;;;9.38;4.07;;;;;;;17.82;72.31;100605.16;3578654;40;20067;-59
2022/11/01 03:17:11;;;;;;;8.68;4.18;;;;;;;17.79;71.78;100605.44;3578553;40;20067;-59
2022/11/01 03:19:51;;;;;;;9.00;3.70;;;;;;;17.77;72.28;100612.88;3579064;40;20126;-59
2022/11/01 03:22:29;;;;;;;8.18;3.50;;;;;;;17.77;71.68;100623.75;3577533;40;20544;-59
2022/11/01 03:25:43;;;;;;;7.55;3.53;;;;;;;17.73;71.22;100627.75;3581658;40;20084;-59
2022/11/01 03:28:31;;;;;;;6.05;3.08;;;;;;;17.72;69.13;100638.75;3582345;40;20394;-58
2022/11/01 03:31:19;;;;;;;5.50;2.78;;;;;;;17.67;67.17;100639.19;3581213;40;20280;-59
2022/11/01 03:34:15;;;;;;;10.10;2.30;;;;;;;17.67;65.42;100644.66;3577586;40;20048;-59
2022/11/01 03:36:51;;;;;;;3.88;1.98;;;;;;;17.70;63.88;100648.94;3577069;40;20153;-59
2022/11/01 03:39:27;;;;;;;3.30;1.83;;;;;;;17.68;61.93;100657.22;3570538;40;20109;-59
2022/11/01 03:42:03;;;;;;;2.83;1.65;;;;;;;17.63;61.43;100659.50;3579126;40;20065;-59
2022/11/01 03:44:41;;;;;;;5.30;1.70;;;;;;;17.63;60.87;100667.66;3580660;40;20064;-60
2022/11/01 03:47:09;;;;;;;1.48;1.38;;;;;;;17.59;60.79;100668.97;3579231;40;20059;-59
2022/11/01 03:49:34;;;;;;;3.80;1.60;;;;;;;17.35;60.10;100640.38;3576176;40;20132;-59
2022/11/01 03:52:00;;;;;;;3.55;1.58;;;;;;;17.49;58.68;100673.56;3576376;40;20052;-59
2022/11/01 03:54:27;;;;;;;2.55;1.50;;;;;;;17.45;59.44;100694.72;3579419;40;20388;-59
2022/11/01 03:56:54;;;;;;;1.63;1.25;;;;;;;17.40;58.73;100692.41;3579954;40;20045;-59
2022/11/01 03:59:19;;;;;;;1.67;1.15;;;;;;;17.31;59.62;100692.41;3580127;40;20391;-59
2022/11/01 04:01:45;;;;;;;3.33;1.38;;;;;;;17.25;58.95;100712.00;3577737;40;20070;-59
2022/11/01 04:04:11;;;;;;;3.58;1.27;;;;;;;17.14;57.35;100715.69;3578984;40;20133;-58
2022/11/01 04:06:36;;;;;;;2.20;0.85;;;;;;;17.11;56.38;100724.13;3579595;40;20064;-59
2022/11/01 04:09:02;;;;;;;3.45;1.08;;;;;;;17.04;55.43;100715.69;3580014;40;20029;-59
2022/11/01 04:11:28;;;;;;;4.00;1.08;;;;;;;17.04;55.33;100726.53;3580672;40;20161;-59
2022/11/01 04:20:31;;;;;;;2.80;0.75;;;;;;;16.98;56.14;100731.69;3578805;40;20497;-58
2022/11/01 04:22:07;;;;;;;1.63;0.80;;;;;;;16.72;56.40;100756.56;3580282;40;20055;-59
2022/11/01 04:24:32;;;;;;;3.45;0.93;;;;;;;16.69;56.45;100759.53;3578098;40;20048;-59
2022/11/01 04:26:58;;;;;;;0.88;0.50;;;;;;;16.60;56.83;100774.78;3580955;40;20069;-60
2022/11/01 04:29:23;;;;;;;1.88;0.60;;;;;;;16.57;56.57;100758.78;3582359;40;20049;-60
2022/11/01 04:31:49;;;;;;;3.55;0.70;;;;;;;16.51;56.40;100774.72;3580243;40;20052;-59
2022/11/01 04:34:40;;;;;;;2.72;0.68;;;;;;;16.43;56.41;100784.41;3581479;40;20048;-60
2022/11/01 04:37:00;;;;;;;2.33;0.70;;;;;;;16.35;57.11;100784.19;3577310;40;20056;-59
2022/11/01 04:39:26;;;;;;;1.52;0.77;;;;;;;16.30;56.72;100789.19;3581087;40;20074;-59
2022/11/01 04:41:51;;;;;;;3.60;0.90;;;;;;;16.25;57.12;100797.72;3579563;40;20169;-59
2022/11/01 04:44:17;;;;;;;1.38;0.70;;;;;;;16.20;57.10;100805.38;3581465;40;20052;-60
2022/11/01 04:46:42;;;;;;;6.07;0.77;;;;;;;16.18;57.10;100818.22;3578274;40;20302;-59
2022/11/01 04:49:08;;;;;;;4.53;1.00;;;;;;;16.13;57.27;100814.16;3580070;40;20117;-58
2022/11/01 04:51:33;;;;;;;1.15;0.60;;;;;;;16.06;57.31;100823.84;3579654;40;20060;-60
2022/11/01 04:53:59;;;;;;;3.38;0.90;;;;;;;15.99;57.52;100837.06;3579751;40;20062;-59
2022/11/01 04:56:25;;;;;;;1.83;0.68;;;;;;;16.01;57.59;100841.31;3577613;40;20056;-58
2022/11/01 04:58:50;;;;;;;3.50;1.02;;;;;;;15.96;56.95;100845.44;3579537;40;20125;-60
2022/11/01 05:01:16;;;;;;;2.88;0.70;;;;;;;15.89;58.21;100845.09;3578298;40;20063;-60
2022/11/01 05:03:42;;;;;;;3.47;0.88;;;;;;;15.84;57.34;100858.16;3578362;40;20138;-60
2022/11/01 05:06:08;;;;;;;6.10;1.15;;;;;;;15.83;57.47;100861.88;3569500;40;20061;-59
2022/11/01 05:08:34;;;;;;;3.45;0.80;;;;;;;15.72;58.36;100868.16;3579059;40;20059;-59
2022/11/01 05:10:59;;;;;;;2.35;0.65;;;;;;;15.78;58.31;100880.34;3580363;40;20056;-59
2022/11/01 05:13:25;;;;;;;1.98;0.70;;;;;;;15.76;57.96;100877.78;3578207;40;20052;-59
2022/11/01 05:15:51;;;;;;;3.50;1.02;;;;;;;15.71;58.61;100876.44;3578532;40;20300;-60
2022/11/01 05:18:16;;;;;;;3.50;0.90;;;;;;;15.64;58.86;100881.47;3577457;40;20413;-59
2022/11/01 05:20:42;;;;;;;1.80;1.00;;;;;;;15.60;58.57;100876.41;3576884;40;20060;-60
2022/11/01 05:23:08;;;;;;;2.25;0.68;;;;;;;15.58;58.28;100886.53;3577225;40;20044;-59
2022/11/01 05:25:34;;;;;;;7.95;1.15;;;;;;;15.57;58.64;100888.38;3581480;40;20048;-60
2022/11/01 05:28:08;;;;;;;3.58;1.00;;;;;;;15.50;58.28;100885.28;3579423;40;20475;-59
2022/11/01 05:30:35;;;;;;;6.00;2.80;;;;;;;15.47;58.25;100887.41;3574464;40;20060;-59
2022/11/01 05:33:03;;;;;;;2.53;1.10;;;;;;;15.48;58.66;100898.13;3579165;40;20084;-62
2022/11/01 05:35:30;;;;;;;4.47;1.05;;;;;;;15.35;58.61;100886.56;3578429;40;20060;-59
2022/11/01 05:37:56;;;;;;;3.15;0.95;;;;;;;15.39;59.21;100896.16;3578901;40;20052;-59
2022/11/01 05:40:24;;;;;;;2.35;0.75;;;;;;;15.36;59.41;100899.13;3577978;40;20048;-59
2022/11/01 05:42:49;;;;;;;9.07;1.20;;;;;;;15.33;59.38;100891.25;3578561;40;20392;-59
2022/11/01 05:45:15;;;;;;;2.53;0.90;;;;;;;15.30;59.56;100905.88;3578918;40;20062;-59
2022/11/01 05:47:41;;;;;;;2.90;0.70;;;;;;;15.25;59.35;100913.50;3578810;40;20088;-58
2022/11/01 05:50:13;;;;;;;4.35;0.95;;;;;;;15.23;59.03;100911.94;3579631;40;20055;-59
2022/11/01 05:52:40;;;;;;;2.20;0.80;;;;;;;15.23;58.92;100917.34;3577900;40;20059;-58
2022/11/01 05:55:08;;;;;;;2.03;0.95;;;;;;;15.16;58.49;100929.63;3578496;40;20055;-58
2022/11/01 05:57:35;;;;;;;2.58;0.95;;;;;;;15.16;57.35;100932.34;3577731;40;20344;-58
2022/11/01 06:00:01;;;;;;;4.63;1.13;;;;;;;15.03;56.40;100917.09;3576706;40;20048;-58
2022/11/01 06:02:31;;;;;;;5.32;1.20;;;;;;;15.02;55.73;100915.34;3575690;40;20292;-57
2022/11/01 06:04:57;;;;;;;4.63;1.25;;;;;;;15.04;55.43;100926.94;3578848;40;20059;-60
2022/11/01 06:07:25;;;;;;;4.32;0.90;;;;;;;15.08;55.54;100919.41;3569468;40;20150;-61
2022/11/01 06:09:51;;;;;;;4.05;1.15;;;;;;;15.06;55.82;100935.81;3575795;40;20057;-58
2022/11/01 06:12:16;;;;;;;4.05;0.80;;;;;;;15.05;55.73;100950.28;3578757;40;20068;-58
2022/11/01 06:14:42;;;;;;;4.32;1.38;;;;;;;15.01;56.17;100956.09;3569322;40;20085;-58
2022/11/01 06:17:11;;;;;;;6.28;1.30;;;;;;;14.95;57.52;100968.25;3581897;40;20068;-59
2022/11/01 06:19:37;;;;;;;4.57;1.27;;;;;;;14.94;57.74;100961.13;3574803;40;20086;-58
2022/11/01 06:22:03;;;;;;;3.72;1.30;;;;;;;14.92;58.17;100973.03;3579626;40;20064;-59
2022/11/01 06:24:28;;;;;;;3.42;1.13;;;;;;;14.90;57.81;100981.28;3577456;40;20064;-58
2022/11/01 06:26:54;;;;;;;7.88;1.10;;;;;;;14.85;58.46;100969.97;3578878;40;20052;-58
2022/11/01 06:29:19;;;;;;;5.18;1.20;;;;;;;14.82;58.86;100975.59;3580259;40;20062;-58
2022/11/01 06:31:45;;;;;;;4.15;1.20;;;;;;;14.78;59.10;100977.69;3578396;40;20068;-57
2022/11/01 06:34:10;;;;;;;5.55;1.20;;;;;;;14.73;58.70;100979.88;3578943;40;20068;-58
2022/11/01 06:36:36;;;;;;;5.45;1.13;;;;;;;14.69;59.22;100986.50;3579530;40;20045;-58
2022/11/01 06:39:02;;;;;;;3.50;1.25;;;;;;;14.64;59.89;100977.88;3577750;40;20288;-58
2022/11/01 06:41:28;;;;;;;5.88;1.25;;;;;;;14.69;59.56;100999.19;3575893;40;20769;-58
2022/11/01 06:43:53;;;;;;;3.67;1.08;;;;;;;14.69;59.96;100996.47;3577166;40;20056;-58
2022/11/01 06:46:19;;;;;;;6.40;1.20;;;;;;;14.66;59.70;100999.41;3578858;40;20066;-59
2022/11/01 06:48:47;;;;;;;8.07;1.42;;;;;;;14.65;59.41;101011.19;3576086;40;20067;-58
2022/11/01 06:51:13;;;;;;;7.28;1.67;;;;;;;14.65;59.67;101006.63;3579341;40;20052;-59
2022/11/01 06:53:38;;;;;;;4.32;1.15;;;;;;;14.63;60.49;101012.19;3574219;40;20066;-58
2022/11/01 06:56:05;;;;;;;4.47;1.30;;;;;;;14.60;60.45;101028.66;3577594;40;20288;-59
2022/11/01 06:58:31;;;;;;;2.75;1.00;;;;;;;14.59;60.29;101026.94;3578954;40;20387;-59
2022/11/01 07:00:56;;;;;;;4.45;0.93;;;;;;;14.57;60.44;101030.72;3579721;40;20067;-59
2022/11/01 07:03:22;;;;;;;6.32;1.27;;;;;;;14.54;60.27;101029.13;3580906;40;20066;-58
2022/11/01 07:05:48;;;;;;;3.42;0.93;;;;;;;14.47;60.70;101025.13;3579489;40;20079;-59
2022/11/01 07:08:14;;;;;;;4.15;1.30;;;;;;;14.50;60.33;101040.25;3578123;40;20412;-59
2022/11/01 07:10:43;;;;;;;4.38;0.90;;;;;;;14.48;60.01;101056.59;3576007;40;20407;-58
2022/11/01 07:13:12;;;;;;;6.53;1.52;;;;;;;14.49;60.16;101044.78;3578282;40;20095;-58
2022/11/01 07:15:38;;;;;;;8.90;1.50;;;;;;;14.43;59.96;101055.19;3578269;40;20414;-58
2022/11/01 07:18:07;;;;;;;5.18;1.15;;;;;;;14.41;60.37;101060.72;3569523;40;20103;-58
2022/11/01 07:20:40;;;;;;;5.45;1.50;;;;;;;14.42;59.98;101062.44;3578875;40;20048;-58
2022/11/01 07:23:12;;;;;;;8.07;1.33;;;;;;;14.42;60.04;101067.00;3580784;40;20060;-59
2022/11/01 07:25:37;;;;;;;9.77;2.05;;;;;;;14.45;59.97;101064.06;3574749;40;20768;-59
2022/11/01 07:28:04;;;;;;;9.75;1.95;;;;;;;14.44;59.95;101081.28;3575091;40;20052;-59
2022/11/01 07:30:29;;;;;;;8.32;1.88;;;;;;;14.43;59.33;101079.53;3577151;40;20064;-58
2022/11/01 07:32:58;;;;;;;5.35;1.60;;;;;;;14.45;59.44;101083.88;3577863;40;20053;-59
2022/11/01 07:35:25;;;;;;;6.50;2.00;;;;;;;14.50;58.76;101088.94;3578597;40;20413;-58
2022/11/01 07:37:51;;;;;;;6.80;1.60;;;;;;;14.51;58.71;101098.81;3577843;40;20461;-59
2022/11/01 07:40:18;;;;;;;4.70;1.60;;;;;;;14.56;58.68;101094.81;3580799;40;20044;-59
2022/11/01 07:42:45;;;;;;;10.05;2.17;;;;;;;14.67;58.14;101103.94;3580044;40;20543;-59
2022/11/01 07:45:12;;;;;;;9.27;1.88;;;;;;;14.76;58.25;101103.25;3574780;40;20078;-59
2022/11/01 07:47:38;;;;;;;6.88;1.75;;;;;;;14.88;57.68;101102.34;3577582;40;20133;-59
2022/11/01 07:50:05;;;;;;;11.15;2.30;;;;;;;14.95;57.25;101103.59;3577593;40;20441;-59
2022/11/01 07:52:32;;;;;;;6.30;1.70;;;;;;;15.05;57.18;101120.88;3578468;40;20071;-58
2022/11/01 07:54:57;;;;;;;12.68;2.00;;;;;;;15.11;56.52;101115.97;3576878;40;20100;-58
2022/11/01 07:57:23;;;;;;;7.28;2.17;;;;;;;15.17;56.28;101108.25;3578321;40;20064;-59
2022/11/01 07:59:48;;;;;;;11.25;1.65;;;;;;;15.26;56.28;101122.94;3579579;40;20068;-59
2022/11/01 08:02:14;;;;;;;6.00;1.42;;;;;;;15.27;56.48;101113.81;3577780;40;20410;-59
2022/11/01 08:04:39;;;;;;;5.97;1.95;;;;;;;15.43;56.37;101130.59;3575564;40;20068;-59
2022/11/01 08:07:05;;;;;;;6.85;1.77;;;;;;;15.53;55.46;101130.75;3577920;40;20052;-59
2022/11/01 08:09:31;;;;;;;10.35;2.63;;;;;;;15.50;55.10;101139.97;3579135;40;20290;-59
2022/11/01 08:11:56;;;;;;;6.43;1.80;;;;;;;15.51;55.48;101144.44;3575991;40;20399;-59
2022/11/01 08:14:22;;;;;;;11.07;2.33;;;;;;;15.60;54.89;101147.41;3579408;40;20058;-59
2022/11/01 08:16:54;;;;;;;8.40;2.13;;;;;;;15.63;54.84;101150.72;3580057;40;20068;-59
2022/11/01 08:19:21;;;;;;;7.93;1.70;;;;;;;15.64;54.76;101144.34;3579360;40;20121;-59
2022/11/01 08:21:49;;;;;;;8.32;1.70;;;;;;;15.69;54.99;101147.56;3580212;40;20072;-59
2022/11/01 08:24:15;;;;;;;9.88;2.03;;;;;;;15.81;54.27;101161.16;3579225;40;20053;-59
2022/11/01 08:26:40;;;;;;;8.85;1.95;;;;;;;15.73;54.29;101164.47;3579358;40;20385;-59
2022/11/01 08:29:06;;;;;;;9.15;2.03;;;;;;;15.59;54.24;101129.41;3578969;40;20059;-58
2022/11/01 08:31:32;;;;;;;11.68;2.28;;;;;;;15.77;53.59;101165.97;3575750;40;20063;-59
2022/11/01 08:33:57;;;;;;;7.63;1.98;;;;;;;15.86;53.91;101165.25;3577946;40;20070;-58
2022/11/01 08:36:23;;;;;;;11.63;2.10;;;;;;;15.93;53.63;101163.78;3578993;40;20056;-58
2022/11/01 08:38:49;;;;;;;13.85;2.88;;;;;;;15.80;53.45;101133.19;3578990;40;20067;-59
2022/11/01 08:41:15;;;;;;;10.95;2.30;;;;;;;16.08;53.59;101169.84;3577152;40;20068;-59
2022/11/01 08:43:40;;;;;;;9.88;2.05;;;;;;;16.24;52.62;101172.19;3579817;40;20111;-59
2022/11/01 08:46:06;;;;;;;11.27;2.22;;;;;;;16.37;52.50;101175.63;3578985;40;20056;-58
2022/11/01 08:48:31;;;;;;;10.50;2.85;;;;;;;16.51;51.90;101165.50;3576065;40;20474;-59
2022/11/01 08:50:57;;;;;;;10.02;2.00;;;;;;;16.51;52.08;101160.94;3576868;40;20056;-59
2022/11/01 08:53:23;;;;;;;7.10;1.92;;;;;;;16.65;51.64;101162.50;3578684;40;20299;-58
2022/11/01 08:55:56;;;;;;;9.88;2.40;;;;;;;16.76;50.71;101184.25;3578369;40;20063;-59
2022/11/01 08:58:22;;;;;;;10.57;1.73;;;;;;;16.73;51.09;101180.91;3577064;40;20060;-59
2022/11/01 09:00:48;;;;;;;8.40;2.10;;;;;;;16.78;51.37;101190.44;3575831;40;20634;-59
2022/11/01 09:03:14;;;;;;;9.95;2.20;;;;;;;16.86;50.91;101182.50;3577092;40;20311;-59
2022/11/01 09:05:40;;;;;;;9.70;2.15;;;;;;;16.97;50.66;101191.59;3576478;40;20384;-59
2022/11/01 09:08:06;;;;;;;11.63;2.10;;;;;;;16.96;51.34;101188.03;3576524;40;20059;-58
2022/11/01 09:10:31;;;;;;;8.25;1.92;;;;;;;17.06;50.91;101186.28;3576266;40;20052;-59
2022/11/01 09:12:59;;;;;;;10.90;2.00;;;;;;;17.21;50.18;101186.84;3579591;40;20107;-59
2022/11/01 09:15:25;;;;;;;10.77;3.00;;;;;;;17.25;49.73;101185.59;3568734;40;20052;-59
2022/11/01 09:17:51;;;;;;;10.95;2.10;;;;;;;17.31;50.27;101206.81;3570548;40;20057;-59
2022/11/01 09:20:18;;;;;;;11.75;2.22;;;;;;;17.39;49.66;101208.91;3576475;40;20044;-59
2022/11/01 09:22:44;;;;;;;10.95;2.35;;;;;;;17.41;50.75;101198.75;3576097;40;20147;-58
2022/11/01 09:25:10;;;;;;;10.35;2.00;;;;;;;17.60;50.05;101192.59;3578772;40;20052;-59
2022/11/01 09:27:35;;;;;;;10.50;2.40;;;;;;;17.68;50.30;101211.84;3578465;40;20468;-59
2022/11/01 09:30:03;;;;;;;13.30;2.75;;;;;;;17.69;49.17;101207.28;3576457;40;20376;-59
2022/11/01 09:32:29;;;;;;;9.80;2.05;;;;;;;17.69;49.96;101205.41;3578912;40;20174;-56
2022/11/01 09:34:55;;;;;;;11.90;2.65;;;;;;;17.77;49.49;101199.34;3576156;40;20395;-57
2022/11/01 09:37:20;;;;;;;13.23;2.45;;;;;;;17.74;49.38;101211.31;3579751;40;20060;-58
2022/11/01 09:39:46;;;;;;;9.23;2.17;;;;;;;17.72;49.91;101220.59;3575989;40;20113;-58
2022/11/01 09:42:41;;;;;;;8.80;2.35;;;;;;;17.84;49.62;101228.59;3578724;40;20056;-58
2022/11/01 09:45:21;;;;;;;10.00;2.53;;;;;;;17.89;50.01;101224.63;3578200;40;20053;-58
2022/11/01 09:47:55;;;;;;;8.02;2.03;;;;;;;17.95;49.78;101240.41;3577565;40;20084;-58
2022/11/01 09:50:29;;;;;;;10.63;2.20;;;;;;;18.00;49.29;101243.59;3576975;40;20065;-60
2022/11/01 09:52:56;;;;;;;14.30;2.47;;;;;;;17.94;49.09;101244.13;3578888;40;20114;-58
2022/11/01 09:56:11;;;;;;;10.90;2.17;;;;;;;18.04;48.86;101232.31;3578725;40;20370;-59
2022/11/01 09:58:50;;;;;;;8.52;2.13;;;;;;;18.29;49.30;101271.84;3574962;40;20086;-60
2022/11/01 10:02:01;;;;;;;8.35;2.25;;;;;;;18.36;48.11;101254.97;3575302;40;20062;-59
2022/11/01 10:05:12;;;;;;;8.93;2.25;;;;;;;18.38;48.32;101259.31;3578347;40;20371;-58
2022/11/01 10:08:15;;;;;;;11.27;2.10;;;;;;;18.36;48.18;101268.59;3579618;40;20053;-58
2022/11/01 10:10:59;;;;;;;9.13;2.05;;;;;;;18.52;48.39;101264.41;3578457;40;20448;-59
2022/11/01 10:13:46;;;;;;;8.95;2.28;;;;;;;18.74;47.41;101268.84;3576858;40;20052;-59
2022/11/01 10:16:40;;;;;;;11.38;2.53;;;;;;;18.79;48.14;101279.31;3578030;40;20051;-59
2022/11/01 10:19:20;;;;;;;10.65;2.75;;;;;;;18.87;48.06;101281.34;3575270;40;20123;-59
2022/11/01 10:22:02;;;;;;;7.38;2.13;;;;;;;18.82;47.80;101279.03;3576874;40;20195;-60
2022/11/01 10:25:07;;;;;;;9.65;2.22;;;;;;;18.76;47.59;101277.72;3578965;40;20060;-58
2022/11/01 10:27:54;;;;;;;9.48;2.08;;;;;;;18.85;47.85;101272.47;3578067;40;20055;-59
2022/11/01 10:30:21;;;;;;;14.20;2.15;;;;;;;19.00;46.92;101298.34;3577022;40;20056;-59
2022/11/01 10:33:01;;;;;;;7.95;1.90;;;;;;;18.96;46.90;101285.97;3577787;40;20080;-59
2022/11/01 10:35:50;;;;;;;9.40;1.98;;;;;;;18.97;46.68;101291.28;3578347;40;20053;-58
2022/11/01 10:38:44;;;;;;;11.38;2.00;;;;;;;19.00;46.55;101287.44;3575358;40;20388;-59
2022/11/01 10:41:20;;;;;;;7.38;2.33;;;;;;;19.16;46.62;101293.22;3577139;40;20064;-58
2022/11/01 10:43:55;;;;;;;10.63;2.50;;;;;;;19.22;46.36;101278.16;3577015;40;20142;-59
2022/11/01 10:46:36;;;;;;;8.48;2.63;;;;;;;19.38;46.40;101291.25;3576495;40;20067;-58
2022/11/01 10:49:23;;;;;;;8.68;1.98;;;;;;;19.46;46.58;101261.41;3578936;40;20060;-59
2022/11/01 10:51:58;;;;;;;9.00;2.25;;;;;;;19.65;45.22;101269.63;3574960;40;20376;-59
2022/11/01 10:54:30;;;;;;;6.85;1.60;;;;;;;19.70;45.68;101277.41;3575305;40;20104;-58
2022/11/01 10:57:06;;;;;;;11.25;2.58;;;;;;;19.86;45.33;101279.56;3579427;40;20065;-59
2022/11/01 10:59:45;;;;;;;7.75;2.25;;;;;;;19.90;45.00;101308.28;3579014;40;20060;-59
2022/11/01 11:03:00;;;;;;;9.75;2.33;;;;;;;19.93;44.17;101284.28;3579739;40;20044;-59
2022/11/01 11:05:30;;;;;;;7.53;1.92;;;;;;;20.08;44.33;101284.72;3577839;40;20153;-58
2022/11/01 11:07:56;;;;;;;10.77;2.03;;;;;;;20.23;43.98;101281.50;3578897;40;20079;-59
2022/11/01 11:10:27;;;;;;;13.90;5.05;;;;;;;20.31;44.18;101287.09;3576974;40;20147;-59
2022/11/01 11:13:05;;;;;;;13.27;6.35;;;;;;;20.40;43.88;101278.03;3577529;40;20132;-59
2022/11/01 11:15:59;;;;;;;7.25;2.22;;;;;;;20.59;43.77;101278.00;3575948;40;20060;-59
2022/11/01 11:18:38;;;;;;;9.95;2.20;;;;;;;20.69;43.39;101282.56;3576917;40;20059;-59
2022/11/01 11:21:12;;;;;;;7.28;1.85;;;;;;;20.80;43.05;101285.09;3577661;40;20121;-59
2022/11/01 11:23:45;;;;;;;6.57;1.73;;;;;;;20.71;42.85;101275.97;3578107;40;20137;-59
2022/11/01 11:26:16;;;;;;;7.45;1.85;;;;;;;20.79;43.35;101275.19;3579266;40;20058;-59
2022/11/01 11:28:51;;;;;;;7.00;1.75;;;;;;;20.98;42.57;101280.56;3575780;40;20445;-59
2022/11/01 11:31:30;;;;;;;8.68;2.00;;;;;;;21.09;42.91;101271.28;3577439;40;20055;-59
2022/11/01 11:34:02;;;;;;;11.10;2.20;;;;;;;21.25;42.35;101279.72;3576972;40;20126;-59
2022/11/01 11:36:37;;;;;;;7.10;2.20;;;;;;;21.25;42.47;101271.50;3576510;40;20044;-60
2022/11/01 11:39:03;;;;;;;8.10;1.77;;;;;;;21.19;41.91;101280.31;3576858;40;20064;-59
2022/11/01 11:41:38;;;;;;;5.85;1.85;;;;;;;21.21;42.38;101266.47;3582057;40;20052;-59
2022/11/01 11:44:32;;;;;;;10.35;2.67;;;;;;;21.33;42.40;101276.19;3581713;40;20048;-58
2022/11/01 11:46:58;;;;;;;6.85;1.92;;;;;;;21.25;42.80;101273.34;3581147;40;20178;-58
2022/11/01 11:49:26;;;;;;;9.02;1.77;;;;;;;21.32;41.87;101269.88;3581049;40;20338;-60
2022/11/01 11:51:53;;;;;;;8.18;1.83;;;;;;;21.07;42.08;101278.81;3581618;40;20049;-59